sensor_id;sensor_type;location;lat;lon;timestamp;P1;P2;P0
36519;PMS5003;40269;46.742;9.778;2022-12-18T00:01:14;10;9;
36519;PMS5003;40269;46.742;9.778;2022-12-18T00:03:42;10;10;
36519;PMS5003;40269;46.742;9.778;2022-12-18T00:06:10;13;9;
36519;PMS5003;40269;46.742;9.778;2022-12-18T00:08:37;10;9;
36519;PMS5003;40269;46.742;9.778;2022-12-18T00:11:04;13;12;
36519;PMS5003;40269;46.742;9.778;2022-12-18T00:13:32;12;7;
36519;PMS5003;40269;46.742;9.778;2022-12-18T00:16:01;9;7;
36519;PMS5003;40269;46.742;9.778;2022-12-18T00:18:29;12;10;
36519;PMS5003;40269;46.742;9.778;2022-12-18T00:20:58;9;7;
36519;PMS5003;40269;46.742;9.778;2022-12-18T00:23:26;12;10;
36519;PMS5003;40269;46.742;9.778;2022-12-18T00:25:53;13;12;
36519;PMS5003;40269;46.742;9.778;2022-12-18T00:28:20;9;9;
36519;PMS5003;40269;46.742;9.778;2022-12-18T00:30:48;9;9;
36519;PMS5003;40269;46.742;9.778;2022-12-18T00:33:15;13;9;
36519;PMS5003;40269;46.742;9.778;2022-12-18T00:35:42;9;7;
36519;PMS5003;40269;46.742;9.778;2022-12-18T00:38:10;9;9;
36519;PMS5003;40269;46.742;9.778;2022-12-18T00:40:37;7;7;
36519;PMS5003;40269;46.742;9.778;2022-12-18T00:43:04;7;6;
36519;PMS5003;40269;46.742;9.778;2022-12-18T00:45:32;12;9;
36519;PMS5003;40269;46.742;9.778;2022-12-18T00:47:59;13;9;
36519;PMS5003;40269;46.742;9.778;2022-12-18T00:50:26;15;13;
36519;PMS5003;40269;46.742;9.778;2022-12-18T00:52:53;9;7;
36519;PMS5003;40269;46.742;9.778;2022-12-18T00:55:20;10;7;
36519;PMS5003;40269;46.742;9.778;2022-12-18T00:57:47;10;7;
36519;PMS5003;40269;46.742;9.778;2022-12-18T01:00:16;10;7;
36519;PMS5003;40269;46.742;9.778;2022-12-18T01:02:44;7;4;
36519;PMS5003;40269;46.742;9.778;2022-12-18T01:05:12;7;6;
36519;PMS5003;40269;46.742;9.778;2022-12-18T01:07:39;9;7;
36519;PMS5003;40269;46.742;9.778;2022-12-18T01:10:07;10;6;
36519;PMS5003;40269;46.742;9.778;2022-12-18T01:12:36;9;7;
36519;PMS5003;40269;46.742;9.778;2022-12-18T01:15:05;7;6;
36519;PMS5003;40269;46.742;9.778;2022-12-18T01:17:34;12;10;
36519;PMS5003;40269;46.742;9.778;2022-12-18T01:20:01;10;7;
36519;PMS5003;40269;46.742;9.778;2022-12-18T01:22:28;9;9;
36519;PMS5003;40269;46.742;9.778;2022-12-18T01:24:56;9;9;
36519;PMS5003;40269;46.742;9.778;2022-12-18T01:27:23;6;4;
36519;PMS5003;40269;46.742;9.778;2022-12-18T01:29:50;12;9;
36519;PMS5003;40269;46.742;9.778;2022-12-18T01:32:18;9;7;
36519;PMS5003;40269;46.742;9.778;2022-12-18T01:34:45;6;6;
36519;PMS5003;40269;46.742;9.778;2022-12-18T01:37:12;9;9;
36519;PMS5003;40269;46.742;9.778;2022-12-18T01:39:40;9;6;
36519;PMS5003;40269;46.742;9.778;2022-12-18T01:42:10;7;7;
36519;PMS5003;40269;46.742;9.778;2022-12-18T01:44:51;6;6;
36519;PMS5003;40269;46.742;9.778;2022-12-18T01:47:23;6;6;
36519;PMS5003;40269;46.742;9.778;2022-12-18T01:49:53;6;6;
36519;PMS5003;40269;46.742;9.778;2022-12-18T01:52:22;7;7;
36519;PMS5003;40269;46.742;9.778;2022-12-18T01:54:52;9;6;
36519;PMS5003;40269;46.742;9.778;2022-12-18T01:57:21;7;7;
36519;PMS5003;40269;46.742;9.778;2022-12-18T01:59:49;10;9;
36519;PMS5003;40269;46.742;9.778;2022-12-18T02:02:19;6;6;
36519;PMS5003;40269;46.742;9.778;2022-12-18T02:04:47;7;4;
36519;PMS5003;40269;46.742;9.778;2022-12-18T02:07:16;6;6;
36519;PMS5003;40269;46.742;9.778;2022-12-18T02:09:51;9;7;
36519;PMS5003;40269;46.742;9.778;2022-12-18T02:12:25;7;4;
36519;PMS5003;40269;46.742;9.778;2022-12-18T02:14:58;6;4;
36519;PMS5003;40269;46.742;9.778;2022-12-18T02:17:40;12;4;
36519;PMS5003;40269;46.742;9.778;2022-12-18T02:20:12;9;7;
36519;PMS5003;40269;46.742;9.778;2022-12-18T02:22:46;9;9;
36519;PMS5003;40269;46.742;9.778;2022-12-18T02:25:36;10;7;
36519;PMS5003;40269;46.742;9.778;2022-12-18T02:28:13;9;7;
36519;PMS5003;40269;46.742;9.778;2022-12-18T02:30:44;6;6;
36519;PMS5003;40269;46.742;9.778;2022-12-18T02:33:14;9;7;
36519;PMS5003;40269;46.742;9.778;2022-12-18T02:35:42;7;4;
36519;PMS5003;40269;46.742;9.778;2022-12-18T02:38:11;7;7;
36519;PMS5003;40269;46.742;9.778;2022-12-18T02:40:40;9;4;
36519;PMS5003;40269;46.742;9.778;2022-12-18T02:43:09;9;6;
36519;PMS5003;40269;46.742;9.778;2022-12-18T02:45:45;4;4;
36519;PMS5003;40269;46.742;9.778;2022-12-18T02:48:14;3;3;
36519;PMS5003;40269;46.742;9.778;2022-12-18T02:50:44;6;6;
36519;PMS5003;40269;46.742;9.778;2022-12-18T02:53:18;4;4;
36519;PMS5003;40269;46.742;9.778;2022-12-18T02:55:55;16;12;
36519;PMS5003;40269;46.742;9.778;2022-12-18T02:58:30;13;12;
36519;PMS5003;40269;46.742;9.778;2022-12-18T03:01:06;6;6;
36519;PMS5003;40269;46.742;9.778;2022-12-18T03:03:40;7;3;
36519;PMS5003;40269;46.742;9.778;2022-12-18T03:06:13;4;4;
36519;PMS5003;40269;46.742;9.778;2022-12-18T03:08:48;4;4;
36519;PMS5003;40269;46.742;9.778;2022-12-18T03:11:20;1;1;
36519;PMS5003;40269;46.742;9.778;2022-12-18T03:13:48;4;4;
36519;PMS5003;40269;46.742;9.778;2022-12-18T03:16:22;4;4;
36519;PMS5003;40269;46.742;9.778;2022-12-18T03:18:53;7;6;
36519;PMS5003;40269;46.742;9.778;2022-12-18T03:21:26;4;4;
36519;PMS5003;40269;46.742;9.778;2022-12-18T03:23:59;1;1;
36519;PMS5003;40269;46.742;9.778;2022-12-18T03:26:29;3;3;
36519;PMS5003;40269;46.742;9.778;2022-12-18T03:28:59;4;3;
36519;PMS5003;40269;46.742;9.778;2022-12-18T03:31:31;3;3;
36519;PMS5003;40269;46.742;9.778;2022-12-18T03:33:59;6;3;
36519;PMS5003;40269;46.742;9.778;2022-12-18T03:36:30;1;1;
36519;PMS5003;40269;46.742;9.778;2022-12-18T03:38:57;3;3;
36519;PMS5003;40269;46.742;9.778;2022-12-18T03:41:26;4;4;
36519;PMS5003;40269;46.742;9.778;2022-12-18T03:43:58;4;3;
36519;PMS5003;40269;46.742;9.778;2022-12-18T03:46:38;1;1;
36519;PMS5003;40269;46.742;9.778;2022-12-18T03:49:14;6;4;
36519;PMS5003;40269;46.742;9.778;2022-12-18T03:51:51;4;4;
36519;PMS5003;40269;46.742;9.778;2022-12-18T03:54:23;3;3;
36519;PMS5003;40269;46.742;9.778;2022-12-18T03:56:56;3;3;
36519;PMS5003;40269;46.742;9.778;2022-12-18T03:59:27;7;6;
36519;PMS5003;40269;46.742;9.778;2022-12-18T04:01:56;12;6;
36519;PMS5003;40269;46.742;9.778;2022-12-18T04:04:25;7;3;
36519;PMS5003;40269;46.742;9.778;2022-12-18T04:06:55;3;3;
36519;PMS5003;40269;46.742;9.778;2022-12-18T04:09:23;7;4;
36519;PMS5003;40269;46.742;9.778;2022-12-18T04:11:51;4;4;
36519;PMS5003;40269;46.742;9.778;2022-12-18T04:14:19;3;3;
36519;PMS5003;40269;46.742;9.778;2022-12-18T04:16:46;6;6;
36519;PMS5003;40269;46.742;9.778;2022-12-18T04:19:13;3;3;
36519;PMS5003;40269;46.742;9.778;2022-12-18T04:21:41;3;3;
36519;PMS5003;40269;46.742;9.778;2022-12-18T04:24:08;4;3;
36519;PMS5003;40269;46.742;9.778;2022-12-18T04:26:35;3;1;
36519;PMS5003;40269;46.742;9.778;2022-12-18T04:29:03;4;4;
36519;PMS5003;40269;46.742;9.778;2022-12-18T04:31:30;4;4;
36519;PMS5003;40269;46.742;9.778;2022-12-18T04:33:57;3;3;
36519;PMS5003;40269;46.742;9.778;2022-12-18T04:36:25;3;3;
36519;PMS5003;40269;46.742;9.778;2022-12-18T04:38:52;3;3;
36519;PMS5003;40269;46.742;9.778;2022-12-18T04:41:19;6;6;
36519;PMS5003;40269;46.742;9.778;2022-12-18T04:43:46;9;7;
36519;PMS5003;40269;46.742;9.778;2022-12-18T04:46:14;13;6;
36519;PMS5003;40269;46.742;9.778;2022-12-18T04:48:41;6;6;
36519;PMS5003;40269;46.742;9.778;2022-12-18T04:51:11;4;3;
36519;PMS5003;40269;46.742;9.778;2022-12-18T04:53:38;6;6;
36519;PMS5003;40269;46.742;9.778;2022-12-18T04:56:07;1;1;
36519;PMS5003;40269;46.742;9.778;2022-12-18T04:58:35;4;4;
36519;PMS5003;40269;46.742;9.778;2022-12-18T05:01:02;3;3;
36519;PMS5003;40269;46.742;9.778;2022-12-18T05:03:29;4;4;
36519;PMS5003;40269;46.742;9.778;2022-12-18T05:05:57;6;6;
36519;PMS5003;40269;46.742;9.778;2022-12-18T05:08:24;7;3;
36519;PMS5003;40269;46.742;9.778;2022-12-18T05:10:57;4;4;
36519;PMS5003;40269;46.742;9.778;2022-12-18T05:13:25;9;6;
36519;PMS5003;40269;46.742;9.778;2022-12-18T05:15:52;3;3;
36519;PMS5003;40269;46.742;9.778;2022-12-18T05:18:20;6;6;
36519;PMS5003;40269;46.742;9.778;2022-12-18T05:20:48;3;3;
36519;PMS5003;40269;46.742;9.778;2022-12-18T05:23:16;6;4;
36519;PMS5003;40269;46.742;9.778;2022-12-18T05:25:46;3;3;
36519;PMS5003;40269;46.742;9.778;2022-12-18T05:28:14;6;6;
36519;PMS5003;40269;46.742;9.778;2022-12-18T05:30:41;7;7;
36519;PMS5003;40269;46.742;9.778;2022-12-18T05:33:08;3;3;
36519;PMS5003;40269;46.742;9.778;2022-12-18T05:35:36;4;4;
36519;PMS5003;40269;46.742;9.778;2022-12-18T05:38:03;4;4;
36519;PMS5003;40269;46.742;9.778;2022-12-18T05:40:30;3;3;
36519;PMS5003;40269;46.742;9.778;2022-12-18T05:42:58;3;3;
36519;PMS5003;40269;46.742;9.778;2022-12-18T05:45:25;4;4;
36519;PMS5003;40269;46.742;9.778;2022-12-18T05:47:52;1;1;
36519;PMS5003;40269;46.742;9.778;2022-12-18T05:50:20;3;3;
36519;PMS5003;40269;46.742;9.778;2022-12-18T05:52:47;1;1;
36519;PMS5003;40269;46.742;9.778;2022-12-18T05:55:14;3;3;
36519;PMS5003;40269;46.742;9.778;2022-12-18T05:57:42;3;3;
36519;PMS5003;40269;46.742;9.778;2022-12-18T06:00:09;6;3;
36519;PMS5003;40269;46.742;9.778;2022-12-18T06:02:37;6;3;
36519;PMS5003;40269;46.742;9.778;2022-12-18T06:05:05;6;6;
36519;PMS5003;40269;46.742;9.778;2022-12-18T06:07:33;3;3;
36519;PMS5003;40269;46.742;9.778;2022-12-18T06:10:00;3;3;
36519;PMS5003;40269;46.742;9.778;2022-12-18T06:12:28;3;3;
36519;PMS5003;40269;46.742;9.778;2022-12-18T06:14:55;3;3;
36519;PMS5003;40269;46.742;9.778;2022-12-18T06:17:22;4;4;
36519;PMS5003;40269;46.742;9.778;2022-12-18T06:19:49;4;3;
36519;PMS5003;40269;46.742;9.778;2022-12-18T06:22:17;6;3;
36519;PMS5003;40269;46.742;9.778;2022-12-18T06:24:44;1;1;
36519;PMS5003;40269;46.742;9.778;2022-12-18T06:27:11;7;4;
36519;PMS5003;40269;46.742;9.778;2022-12-18T06:29:39;3;3;
36519;PMS5003;40269;46.742;9.778;2022-12-18T06:32:06;3;3;
36519;PMS5003;40269;46.742;9.778;2022-12-18T06:34:33;10;9;
36519;PMS5003;40269;46.742;9.778;2022-12-18T06:37:02;6;6;
36519;PMS5003;40269;46.742;9.778;2022-12-18T06:39:30;6;4;
36519;PMS5003;40269;46.742;9.778;2022-12-18T06:41:57;4;4;
36519;PMS5003;40269;46.742;9.778;2022-12-18T06:44:24;7;6;
36519;PMS5003;40269;46.742;9.778;2022-12-18T06:46:51;12;9;
36519;PMS5003;40269;46.742;9.778;2022-12-18T06:49:18;6;6;
36519;PMS5003;40269;46.742;9.778;2022-12-18T06:51:46;10;9;
36519;PMS5003;40269;46.742;9.778;2022-12-18T06:54:13;7;7;
36519;PMS5003;40269;46.742;9.778;2022-12-18T06:56:40;9;7;
36519;PMS5003;40269;46.742;9.778;2022-12-18T06:59:08;6;6;
36519;PMS5003;40269;46.742;9.778;2022-12-18T07:01:35;10;9;
36519;PMS5003;40269;46.742;9.778;2022-12-18T07:04:02;13;13;
36519;PMS5003;40269;46.742;9.778;2022-12-18T07:06:29;28;27;
36519;PMS5003;40269;46.742;9.778;2022-12-18T07:08:57;22;21;
36519;PMS5003;40269;46.742;9.778;2022-12-18T07:11:24;16;16;
36519;PMS5003;40269;46.742;9.778;2022-12-18T07:13:51;22;18;
36519;PMS5003;40269;46.742;9.778;2022-12-18T07:16:19;10;10;
36519;PMS5003;40269;46.742;9.778;2022-12-18T07:18:47;18;16;
36519;PMS5003;40269;46.742;9.778;2022-12-18T07:21:15;12;10;
36519;PMS5003;40269;46.742;9.778;2022-12-18T07:23:44;10;10;
36519;PMS5003;40269;46.742;9.778;2022-12-18T07:26:12;10;9;
36519;PMS5003;40269;46.742;9.778;2022-12-18T07:28:41;6;6;
36519;PMS5003;40269;46.742;9.778;2022-12-18T07:31:10;15;10;
36519;PMS5003;40269;46.742;9.778;2022-12-18T07:33:38;16;10;
36519;PMS5003;40269;46.742;9.778;2022-12-18T07:36:06;9;9;
36519;PMS5003;40269;46.742;9.778;2022-12-18T07:38:35;10;10;
36519;PMS5003;40269;46.742;9.778;2022-12-18T07:41:03;13;9;
36519;PMS5003;40269;46.742;9.778;2022-12-18T07:43:31;13;9;
36519;PMS5003;40269;46.742;9.778;2022-12-18T07:45:59;12;12;
36519;PMS5003;40269;46.742;9.778;2022-12-18T07:48:26;19;15;
36519;PMS5003;40269;46.742;9.778;2022-12-18T07:50:57;22;19;
36519;PMS5003;40269;46.742;9.778;2022-12-18T07:53:25;16;13;
36519;PMS5003;40269;46.742;9.778;2022-12-18T07:55:54;12;12;
36519;PMS5003;40269;46.742;9.778;2022-12-18T07:58:22;15;12;
36519;PMS5003;40269;46.742;9.778;2022-12-18T08:00:49;13;13;
36519;PMS5003;40269;46.742;9.778;2022-12-18T08:03:17;15;13;
36519;PMS5003;40269;46.742;9.778;2022-12-18T08:05:44;13;13;
36519;PMS5003;40269;46.742;9.778;2022-12-18T08:08:11;10;10;
36519;PMS5003;40269;46.742;9.778;2022-12-18T08:10:38;15;13;
36519;PMS5003;40269;46.742;9.778;2022-12-18T08:13:05;19;16;
36519;PMS5003;40269;46.742;9.778;2022-12-18T08:15:33;15;13;
36519;PMS5003;40269;46.742;9.778;2022-12-18T08:18:00;11;10;
36519;PMS5003;40269;46.742;9.778;2022-12-18T08:20:27;18;13;
36519;PMS5003;40269;46.742;9.778;2022-12-18T08:22:54;14;13;
36519;PMS5003;40269;46.742;9.778;2022-12-18T08:25:22;14;14;
36519;PMS5003;40269;46.742;9.778;2022-12-18T08:27:48;14;14;
36519;PMS5003;40269;46.742;9.778;2022-12-18T08:30:16;11;11;
36519;PMS5003;40269;46.742;9.778;2022-12-18T08:32:43;11;11;
36519;PMS5003;40269;46.742;9.778;2022-12-18T08:35:10;14;11;
36519;PMS5003;40269;46.742;9.778;2022-12-18T08:37:37;11;11;
36519;PMS5003;40269;46.742;9.778;2022-12-18T08:40:05;14;14;
36519;PMS5003;40269;46.742;9.778;2022-12-18T08:42:33;16;14;
36519;PMS5003;40269;46.742;9.778;2022-12-18T08:45:00;19;16;
36519;PMS5003;40269;46.742;9.778;2022-12-18T08:47:28;13;13;
36519;PMS5003;40269;46.742;9.778;2022-12-18T08:49:56;20;13;
36519;PMS5003;40269;46.742;9.778;2022-12-18T08:52:23;14;14;
36519;PMS5003;40269;46.742;9.778;2022-12-18T08:54:50;17;13;
36519;PMS5003;40269;46.742;9.778;2022-12-18T08:57:17;23;16;
36519;PMS5003;40269;46.742;9.778;2022-12-18T08:59:45;17;16;
36519;PMS5003;40269;46.742;9.778;2022-12-18T09:02:12;22;20;
36519;PMS5003;40269;46.742;9.778;2022-12-18T09:04:39;19;17;
36519;PMS5003;40269;46.742;9.778;2022-12-18T09:07:06;16;13;
36519;PMS5003;40269;46.742;9.778;2022-12-18T09:09:33;29;26;
36519;PMS5003;40269;46.742;9.778;2022-12-18T09:12:00;32;29;
36519;PMS5003;40269;46.742;9.778;2022-12-18T09:14:27;28;22;
36519;PMS5003;40269;46.742;9.778;2022-12-18T09:16:54;23;22;
36519;PMS5003;40269;46.742;9.778;2022-12-18T09:19:21;29;20;
36519;PMS5003;40269;46.742;9.778;2022-12-18T09:21:48;19;14;
36519;PMS5003;40269;46.742;9.778;2022-12-18T09:24:16;16;16;
36519;PMS5003;40269;46.742;9.778;2022-12-18T09:26:44;13;13;
36519;PMS5003;40269;46.742;9.778;2022-12-18T09:29:10;20;14;
36519;PMS5003;40269;46.742;9.778;2022-12-18T09:31:38;17;15;
36519;PMS5003;40269;46.742;9.778;2022-12-18T09:34:05;18;17;
36519;PMS5003;40269;46.742;9.778;2022-12-18T09:36:33;15;14;
36519;PMS5003;40269;46.742;9.778;2022-12-18T09:39:00;18;15;
36519;PMS5003;40269;46.742;9.778;2022-12-18T09:41:33;14;12;
36519;PMS5003;40269;46.742;9.778;2022-12-18T09:44:10;48;45;
36519;PMS5003;40269;46.742;9.778;2022-12-18T09:46:46;25;25;
36519;PMS5003;40269;46.742;9.778;2022-12-18T09:49:19;17;15;
36519;PMS5003;40269;46.742;9.778;2022-12-18T09:51:52;12;11;
36519;PMS5003;40269;46.742;9.778;2022-12-18T09:54:25;15;15;
36519;PMS5003;40269;46.742;9.778;2022-12-18T09:56:55;13;12;
36519;PMS5003;40269;46.742;9.778;2022-12-18T09:59:23;18;16;
36519;PMS5003;40269;46.742;9.778;2022-12-18T10:01:52;13;11;
36519;PMS5003;40269;46.742;9.778;2022-12-18T10:04:19;14;11;
36519;PMS5003;40269;46.742;9.778;2022-12-18T10:06:49;11;11;
36519;PMS5003;40269;46.742;9.778;2022-12-18T10:09:24;13;12;
36519;PMS5003;40269;46.742;9.778;2022-12-18T10:12:00;8;8;
36519;PMS5003;40269;46.742;9.778;2022-12-18T10:14:35;8;8;
36519;PMS5003;40269;46.742;9.778;2022-12-18T10:17:19;11;11;
36519;PMS5003;40269;46.742;9.778;2022-12-18T10:19:54;9;8;
36519;PMS5003;40269;46.742;9.778;2022-12-18T10:22:27;7;5;
36519;PMS5003;40269;46.742;9.778;2022-12-18T10:25:15;10;9;
36519;PMS5003;40269;46.742;9.778;2022-12-18T10:27:47;7;7;
36519;PMS5003;40269;46.742;9.778;2022-12-18T10:30:19;8;6;
36519;PMS5003;40269;46.742;9.778;2022-12-18T10:32:48;11;10;
36519;PMS5003;40269;46.742;9.778;2022-12-18T10:35:17;9;8;
36519;PMS5003;40269;46.742;9.778;2022-12-18T10:38:03;11;9;
36519;PMS5003;40269;46.742;9.778;2022-12-18T10:40:32;6;6;
36519;PMS5003;40269;46.742;9.778;2022-12-18T10:43:14;9;6;
36519;PMS5003;40269;46.742;9.778;2022-12-18T10:45:57;6;5;
36519;PMS5003;40269;46.742;9.778;2022-12-18T10:48:27;9;9;
36519;PMS5003;40269;46.742;9.778;2022-12-18T10:50:56;8;5;
36519;PMS5003;40269;46.742;9.778;2022-12-18T10:53:24;8;5;
36519;PMS5003;40269;46.742;9.778;2022-12-18T10:55:53;6;6;
36519;PMS5003;40269;46.742;9.778;2022-12-18T10:58:25;4;4;
36519;PMS5003;40269;46.742;9.778;2022-12-18T11:01:03;6;6;
36519;PMS5003;40269;46.742;9.778;2022-12-18T11:03:33;10;8;
36519;PMS5003;40269;46.742;9.778;2022-12-18T11:06:02;5;5;
36519;PMS5003;40269;46.742;9.778;2022-12-18T11:08:31;49;47;
36519;PMS5003;40269;46.742;9.778;2022-12-18T11:10:59;6;6;
36519;PMS5003;40269;46.742;9.778;2022-12-18T11:13:27;8;7;
36519;PMS5003;40269;46.742;9.778;2022-12-18T11:15:56;7;7;
36519;PMS5003;40269;46.742;9.778;2022-12-18T11:18:26;6;6;
36519;PMS5003;40269;46.742;9.778;2022-12-18T11:20:56;6;6;
36519;PMS5003;40269;46.742;9.778;2022-12-18T11:23:25;5;5;
36519;PMS5003;40269;46.742;9.778;2022-12-18T11:25:53;5;5;
36519;PMS5003;40269;46.742;9.778;2022-12-18T11:28:28;5;5;
36519;PMS5003;40269;46.742;9.778;2022-12-18T11:31:11;8;6;
36519;PMS5003;40269;46.742;9.778;2022-12-18T11:33:46;6;6;
36519;PMS5003;40269;46.742;9.778;2022-12-18T11:36:18;6;6;
36519;PMS5003;40269;46.742;9.778;2022-12-18T11:38:47;3;2;
36519;PMS5003;40269;46.742;9.778;2022-12-18T11:41:20;4;4;
36519;PMS5003;40269;46.742;9.778;2022-12-18T11:43:52;3;3;
36519;PMS5003;40269;46.742;9.778;2022-12-18T11:46:23;5;3;
36519;PMS5003;40269;46.742;9.778;2022-12-18T11:48:58;4;3;
36519;PMS5003;40269;46.742;9.778;2022-12-18T11:51:31;3;3;
36519;PMS5003;40269;46.742;9.778;2022-12-18T11:54:04;3;3;
36519;PMS5003;40269;46.742;9.778;2022-12-18T11:56:40;2;2;
36519;PMS5003;40269;46.742;9.778;2022-12-18T11:59:15;2;2;
36519;PMS5003;40269;46.742;9.778;2022-12-18T12:01:49;5;3;
36519;PMS5003;40269;46.742;9.778;2022-12-18T12:04:31;4;1;
36519;PMS5003;40269;46.742;9.778;2022-12-18T12:07:13;2;2;
36519;PMS5003;40269;46.742;9.778;2022-12-18T12:09:54;2;1;
36519;PMS5003;40269;46.742;9.778;2022-12-18T12:12:30;3;3;
36519;PMS5003;40269;46.742;9.778;2022-12-18T12:15:06;3;2;
36519;PMS5003;40269;46.742;9.778;2022-12-18T12:17:47;2;2;
36519;PMS5003;40269;46.742;9.778;2022-12-18T12:20:21;5;2;
36519;PMS5003;40269;46.742;9.778;2022-12-18T12:22:55;2;2;
36519;PMS5003;40269;46.742;9.778;2022-12-18T12:25:33;2;2;
36519;PMS5003;40269;46.742;9.778;2022-12-18T12:28:11;2;2;
36519;PMS5003;40269;46.742;9.778;2022-12-18T12:30:49;1;1;
36519;PMS5003;40269;46.742;9.778;2022-12-18T12:33:28;3;3;
36519;PMS5003;40269;46.742;9.778;2022-12-18T12:36:05;2;2;
36519;PMS5003;40269;46.742;9.778;2022-12-18T12:38:42;3;2;
36519;PMS5003;40269;46.742;9.778;2022-12-18T12:41:12;3;2;
36519;PMS5003;40269;46.742;9.778;2022-12-18T12:43:44;2;2;
36519;PMS5003;40269;46.742;9.778;2022-12-18T12:46:13;3;2;
36519;PMS5003;40269;46.742;9.778;2022-12-18T12:48:44;1;1;
36519;PMS5003;40269;46.742;9.778;2022-12-18T12:51:16;3;3;
36519;PMS5003;40269;46.742;9.778;2022-12-18T12:53:45;2;2;
36519;PMS5003;40269;46.742;9.778;2022-12-18T12:56:14;3;3;
36519;PMS5003;40269;46.742;9.778;2022-12-18T12:58:45;2;2;
36519;PMS5003;40269;46.742;9.778;2022-12-18T13:01:24;0;0;
36519;PMS5003;40269;46.742;9.778;2022-12-18T13:04:01;1;1;
36519;PMS5003;40269;46.742;9.778;2022-12-18T13:06:40;1;1;
36519;PMS5003;40269;46.742;9.778;2022-12-18T13:09:11;2;2;
36519;PMS5003;40269;46.742;9.778;2022-12-18T13:11:39;1;1;
36519;PMS5003;40269;46.742;9.778;2022-12-18T13:14:12;2;2;
36519;PMS5003;40269;46.742;9.778;2022-12-18T13:16:48;2;2;
36519;PMS5003;40269;46.742;9.778;2022-12-18T13:19:20;0;0;
36519;PMS5003;40269;46.742;9.778;2022-12-18T13:21:52;1;1;
36519;PMS5003;40269;46.742;9.778;2022-12-18T13:24:23;0;0;
36519;PMS5003;40269;46.742;9.778;2022-12-18T13:26:52;1;1;
36519;PMS5003;40269;46.742;9.778;2022-12-18T13:29:40;1;1;
36519;PMS5003;40269;46.742;9.778;2022-12-18T13:32:25;1;1;
36519;PMS5003;40269;46.742;9.778;2022-12-18T13:36:00;2;2;
36519;PMS5003;40269;46.742;9.778;2022-12-18T13:38:33;2;2;
36519;PMS5003;40269;46.742;9.778;2022-12-18T13:41:01;2;2;
36519;PMS5003;40269;46.742;9.778;2022-12-18T13:43:32;1;1;
36519;PMS5003;40269;46.742;9.778;2022-12-18T13:46:17;2;2;
36519;PMS5003;40269;46.742;9.778;2022-12-18T13:48:52;1;1;
36519;PMS5003;40269;46.742;9.778;2022-12-18T13:51:22;2;2;
36519;PMS5003;40269;46.742;9.778;2022-12-18T13:53:51;2;2;
36519;PMS5003;40269;46.742;9.778;2022-12-18T13:56:22;1;1;
36519;PMS5003;40269;46.742;9.778;2022-12-18T13:59:09;1;1;
36519;PMS5003;40269;46.742;9.778;2022-12-18T14:01:42;3;2;
36519;PMS5003;40269;46.742;9.778;2022-12-18T14:04:10;1;1;
36519;PMS5003;40269;46.742;9.778;2022-12-18T14:06:38;3;3;
36519;PMS5003;40269;46.742;9.778;2022-12-18T14:09:08;2;1;
36519;PMS5003;40269;46.742;9.778;2022-12-18T14:11:39;2;2;
36519;PMS5003;40269;46.742;9.778;2022-12-18T14:14:07;3;3;
36519;PMS5003;40269;46.742;9.778;2022-12-18T14:16:33;2;2;
36519;PMS5003;40269;46.742;9.778;2022-12-18T14:19:00;2;2;
36519;PMS5003;40269;46.742;9.778;2022-12-18T14:21:28;3;2;
36519;PMS5003;40269;46.742;9.778;2022-12-18T14:24:13;3;3;
36519;PMS5003;40269;46.742;9.778;2022-12-18T14:26:41;2;2;
36519;PMS5003;40269;46.742;9.778;2022-12-18T14:29:25;3;3;
36519;PMS5003;40269;46.742;9.778;2022-12-18T14:32:10;5;3;
36519;PMS5003;40269;46.742;9.778;2022-12-18T14:34:39;3;3;
36519;PMS5003;40269;46.742;9.778;2022-12-18T14:37:09;4;3;
36519;PMS5003;40269;46.742;9.778;2022-12-18T14:39:37;3;2;
36519;PMS5003;40269;46.742;9.778;2022-12-18T14:42:05;4;2;
36519;PMS5003;40269;46.742;9.778;2022-12-18T14:44:36;4;3;
36519;PMS5003;40269;46.742;9.778;2022-12-18T14:47:03;7;4;
36519;PMS5003;40269;46.742;9.778;2022-12-18T14:49:31;5;3;
36519;PMS5003;40269;46.742;9.778;2022-12-18T14:52:00;2;2;
36519;PMS5003;40269;46.742;9.778;2022-12-18T14:54:29;3;3;
36519;PMS5003;40269;46.742;9.778;2022-12-18T14:56:59;6;4;
36519;PMS5003;40269;46.742;9.778;2022-12-18T14:59:28;2;2;
36519;PMS5003;40269;46.742;9.778;2022-12-18T15:01:58;4;3;
36519;PMS5003;40269;46.742;9.778;2022-12-18T15:04:29;5;3;
36519;PMS5003;40269;46.742;9.778;2022-12-18T15:07:03;11;11;
36519;PMS5003;40269;46.742;9.778;2022-12-18T15:09:33;4;4;
36519;PMS5003;40269;46.742;9.778;2022-12-18T15:12:00;10;8;
36519;PMS5003;40269;46.742;9.778;2022-12-18T15:14:33;6;4;
36519;PMS5003;40269;46.742;9.778;2022-12-18T15:17:06;7;6;
36519;PMS5003;40269;46.742;9.778;2022-12-18T15:19:42;6;4;
36519;PMS5003;40269;46.742;9.778;2022-12-18T15:22:15;8;7;
36519;PMS5003;40269;46.742;9.778;2022-12-18T15:24:46;6;6;
36519;PMS5003;40269;46.742;9.778;2022-12-18T15:27:23;2;2;
36519;PMS5003;40269;46.742;9.778;2022-12-18T15:30:25;4;4;
36519;PMS5003;40269;46.742;9.778;2022-12-18T15:32:52;6;6;
36519;PMS5003;40269;46.742;9.778;2022-12-18T15:35:55;6;6;
36519;PMS5003;40269;46.742;9.778;2022-12-18T15:38:23;7;6;
36519;PMS5003;40269;46.742;9.778;2022-12-18T15:40:50;7;7;
36519;PMS5003;40269;46.742;9.778;2022-12-18T15:43:18;7;7;
36519;PMS5003;40269;46.742;9.778;2022-12-18T15:45:47;5;5;
36519;PMS5003;40269;46.742;9.778;2022-12-18T15:48:20;6;5;
36519;PMS5003;40269;46.742;9.778;2022-12-18T15:50:48;6;3;
36519;PMS5003;40269;46.742;9.778;2022-12-18T15:53:16;5;5;
36519;PMS5003;40269;46.742;9.778;2022-12-18T15:55:44;5;3;
36519;PMS5003;40269;46.742;9.778;2022-12-18T15:58:11;10;6;
36519;PMS5003;40269;46.742;9.778;2022-12-18T16:00:38;7;6;
36519;PMS5003;40269;46.742;9.778;2022-12-18T16:03:06;9;6;
36519;PMS5003;40269;46.742;9.778;2022-12-18T16:05:34;9;7;
36519;PMS5003;40269;46.742;9.778;2022-12-18T16:08:01;16;14;
36519;PMS5003;40269;46.742;9.778;2022-12-18T16:10:28;10;10;
36519;PMS5003;40269;46.742;9.778;2022-12-18T16:12:55;7;7;
36519;PMS5003;40269;46.742;9.778;2022-12-18T16:15:22;6;6;
36519;PMS5003;40269;46.742;9.778;2022-12-18T16:17:49;6;5;
36519;PMS5003;40269;46.742;9.778;2022-12-18T16:20:17;6;5;
36519;PMS5003;40269;46.742;9.778;2022-12-18T16:22:45;9;7;
36519;PMS5003;40269;46.742;9.778;2022-12-18T16:25:16;7;5;
36519;PMS5003;40269;46.742;9.778;2022-12-18T16:27:45;16;11;
36519;PMS5003;40269;46.742;9.778;2022-12-18T16:30:13;13;10;
36519;PMS5003;40269;46.742;9.778;2022-12-18T16:32:41;7;7;
36519;PMS5003;40269;46.742;9.778;2022-12-18T16:35:09;11;11;
36519;PMS5003;40269;46.742;9.778;2022-12-18T16:37:37;11;10;
36519;PMS5003;40269;46.742;9.778;2022-12-18T16:40:04;10;9;
36519;PMS5003;40269;46.742;9.778;2022-12-18T16:42:32;7;7;
36519;PMS5003;40269;46.742;9.778;2022-12-18T16:44:59;11;10;
36519;PMS5003;40269;46.742;9.778;2022-12-18T16:47:27;10;9;
36519;PMS5003;40269;46.742;9.778;2022-12-18T16:49:54;15;13;
36519;PMS5003;40269;46.742;9.778;2022-12-18T16:52:21;15;15;
36519;PMS5003;40269;46.742;9.778;2022-12-18T16:54:49;25;19;
36519;PMS5003;40269;46.742;9.778;2022-12-18T16:57:16;50;48;
36519;PMS5003;40269;46.742;9.778;2022-12-18T16:59:45;19;17;
36519;PMS5003;40269;46.742;9.778;2022-12-18T17:02:12;22;17;